Time;durP1;ratioP1;P1;durP2;ratioP2;P2;SDS_P1;SDS_P2;PMS_P1;PMS_P2;Temp;Humidity;BMP_temperature;BMP_pressure;BME280_temperature;BME280_humidity;BME280_pressure;Samples;Min_cycle;Max_cycle;Signal;HPM_P1;HPM_P2
2022/03/31 00:00:43;;;;;;;2.80;2.60;;;18.40;40.10;;;;;;5007445;28;21061;-58
2022/03/31 00:03:11;;;;;;;3.20;3.00;;;18.40;40.10;;;;;;5007431;28;20865;-58
2022/03/31 00:05:38;;;;;;;3.47;3.17;;;18.40;40.20;;;;;;5010734;28;20461;-58
2022/03/31 00:08:09;;;;;;;3.00;2.80;;;18.40;40.90;;;;;;5008117;28;20437;-57
2022/03/31 00:10:37;;;;;;;2.60;2.50;;;18.40;40.10;;;;;;5010336;28;20517;-58
2022/03/31 00:13:06;;;;;;;2.70;2.60;;;18.40;40.10;;;;;;5005599;28;20435;-58
2022/03/31 00:15:32;;;;;;;3.13;2.93;;;18.40;40.10;;;;;;5006536;28;20533;-58
2022/03/31 00:18:00;;;;;;;3.20;3.00;;;18.40;40.10;;;;;;5008833;28;20459;-60
2022/03/31 00:33:52;;;;;;;2.77;2.40;;;18.40;40.10;;;;;;5008454;28;20471;-57
2022/03/31 00:36:18;;;;;;;3.30;3.10;;;18.40;40.20;;;;;;5008928;28;20500;-57
2022/03/31 00:39:28;;;;;;;3.40;3.20;;;18.40;40.20;;;;;;5007628;28;20640;-60
2022/03/31 00:41:38;;;;;;;3.10;2.90;;;18.40;40.20;;;;;;5007308;28;20306;-57
2022/03/31 00:44:04;;;;;;;2.70;2.60;;;18.40;40.20;;;;;;5009159;28;20445;-59
2022/03/31 00:46:30;;;;;;;3.13;2.93;;;18.40;40.10;;;;;;5007376;28;20439;-57
2022/03/31 00:48:56;;;;;;;2.87;2.67;;;18.40;40.10;;;;;;5008736;28;20424;-58
2022/03/31 00:51:22;;;;;;;3.20;3.00;;;18.40;40.10;;;;;;5005573;28;20754;-59
2022/03/31 00:53:47;;;;;;;2.50;2.40;;;18.40;40.10;;;;;;4990743;28;20641;-58
2022/03/31 00:56:15;;;;;;;2.77;2.57;;;18.40;40.10;;;;;;5009678;28;20236;-58
2022/03/31 00:58:41;;;;;;;7.23;3.40;;;18.40;40.10;;;;;;5007320;28;20226;-60
2022/03/31 01:01:08;;;;;;;2.80;2.60;;;18.40;40.10;;;;;;5008566;28;20435;-57
2022/03/31 01:03:35;;;;;;;2.70;2.50;;;18.40;40.10;;;;;;5008790;28;20219;-58
2022/03/31 01:06:01;;;;;;;3.17;2.97;;;18.40;40.10;;;;;;5379866;22;20538;-78
2022/03/31 01:08:27;;;;;;;3.00;2.80;;;18.40;40.10;;;;;;5026504;28;20419;-78
2022/03/31 01:10:53;;;;;;;2.50;2.30;;;18.40;40.10;;;;;;5034160;28;20219;-78
2022/03/31 01:13:19;;;;;;;2.77;2.57;;;18.40;40.10;;;;;;5021046;28;20941;-79
2022/03/31 01:18:13;;;;;;;2.73;2.53;;;18.40;40.10;;;;;;5034820;28;20572;-57
2022/03/31 01:20:39;;;;;;;2.87;2.67;;;18.40;40.10;;;;;;5036461;28;20483;-58
2022/03/31 01:23:11;;;;;;;3.27;3.07;;;18.40;40.10;;;;;;5036742;28;20699;-58
2022/03/31 01:25:36;;;;;;;3.00;2.80;;;18.40;40.10;;;;;;5037421;28;20230;-58
2022/03/31 01:28:02;;;;;;;2.90;2.80;;;18.40;40.10;;;;;;5040331;28;20983;-57
2022/03/31 01:30:28;;;;;;;2.97;2.77;;;18.40;40.10;;;;;;5040833;28;20219;-58
2022/03/31 01:32:54;;;;;;;2.80;2.60;;;18.40;40.10;;;;;;5039948;28;20426;-58
2022/03/31 01:35:20;;;;;;;2.53;2.43;;;18.40;40.10;;;;;;5036762;28;20231;-58
2022/03/31 01:37:47;;;;;;;2.67;2.53;;;18.40;40.10;;;;;;5041818;28;20810;-57
2022/03/31 01:40:14;;;;;;;3.00;2.80;;;18.40;40.10;;;;;;5038460;28;20456;-58
2022/03/31 01:42:42;;;;;;;2.60;2.50;;;18.40;40.10;;;;;;5040059;28;20475;-58
2022/03/31 01:45:11;;;;;;;3.33;3.13;;;18.40;40.10;;;;;;5036809;28;20763;-58
2022/03/31 01:47:37;;;;;;;2.80;2.60;;;18.40;40.10;;;;;;5040382;28;20435;-58
2022/03/31 01:50:03;;;;;;;3.00;2.80;;;18.40;40.10;;;;;;5043274;28;20423;-58
2022/03/31 01:52:30;;;;;;;2.90;2.77;;;18.40;40.10;;;;;;5036062;28;21010;-57
2022/03/31 01:54:55;;;;;;;2.70;2.60;;;18.40;40.10;;;;;;5042442;28;20461;-57
2022/03/31 01:57:21;;;;;;;2.40;2.20;;;18.40;40.10;;;;;;5036870;28;20907;-57
2022/03/31 01:59:47;;;;;;;2.80;2.60;;;18.40;40.10;;;;;;5037399;28;20230;-58
2022/03/31 02:02:13;;;;;;;2.67;2.47;;;18.40;40.10;;;;;;5039687;28;20226;-58
2022/03/31 02:04:40;;;;;;;2.60;2.40;;;18.40;40.10;;;;;;5038565;28;20227;-60
2022/03/31 02:07:06;;;;;;;2.57;2.47;;;18.40;40.10;;;;;;5037223;28;20897;-57
2022/03/31 02:09:32;;;;;;;2.80;2.60;;;18.40;40.10;;;;;;5037475;28;20418;-58
2022/03/31 02:11:59;;;;;;;2.60;2.40;;;18.40;40.10;;;;;;5039265;28;20926;-58
2022/03/31 02:14:25;;;;;;;2.40;2.30;;;18.40;40.20;;;;;;5033535;28;20223;-58
2022/03/31 02:16:51;;;;;;;2.33;2.23;;;18.30;40.00;;;;;;5044882;28;20806;-57
2022/03/31 02:19:18;;;;;;;2.70;2.50;;;18.30;40.00;;;;;;5040977;28;20807;-59
2022/03/31 02:21:44;;;;;;;2.50;2.40;;;18.40;40.10;;;;;;5047974;28;20668;-58
2022/03/31 02:24:09;;;;;;;2.80;2.60;;;18.40;40.20;;;;;;5040492;28;20926;-59
2022/03/31 02:26:36;;;;;;;2.43;2.33;;;18.30;40.00;;;;;;5042281;28;20514;-59
2022/03/31 02:29:03;;;;;;;2.13;2.03;;;18.30;40.00;;;;;;5038096;28;20233;-58
2022/03/31 02:31:29;;;;;;;2.10;2.00;;;18.40;40.10;;;;;;5040001;28;20425;-58
2022/03/31 02:33:56;;;;;;;2.77;2.57;;;18.40;40.10;;;;;;5041995;28;20430;-59
2022/03/31 02:36:22;;;;;;;4.13;2.40;;;18.30;40.00;;;;;;5041215;28;20494;-58
2022/03/31 02:38:47;;;;;;;2.43;2.23;;;18.30;40.00;;;;;;5046514;28;20454;-60
2022/03/31 02:41:13;;;;;;;2.30;2.10;;;18.30;40.00;;;;;;5043465;28;20452;-58
2022/03/31 02:43:38;;;;;;;2.90;2.80;;;18.30;40.00;;;;;;5043905;28;20211;-57
2022/03/31 02:46:04;;;;;;;2.70;2.50;;;18.30;40.10;;;;;;5040878;28;20235;-59
2022/03/31 02:48:30;;;;;;;2.40;2.30;;;18.30;40.00;;;;;;5042870;28;20558;-58
2022/03/31 02:50:55;;;;;;;2.20;2.10;;;18.30;40.00;;;;;;5039492;28;20230;-58
2022/03/31 02:56:05;;;;;;;2.43;2.23;;;18.30;40.00;;;;;;5042862;28;20237;-58
2022/03/31 02:58:31;;;;;;;2.67;2.47;;;18.40;40.20;;;;;;5039692;28;20427;-57
2022/03/31 03:00:57;;;;;;;2.80;2.60;;;18.30;40.10;;;;;;5041927;28;20694;-59
2022/03/31 03:03:23;;;;;;;2.47;2.30;;;18.30;40.10;;;;;;5040990;28;20250;-58
2022/03/31 03:05:48;;;;;;;2.23;2.13;;;18.30;40.00;;;;;;5040416;28;20555;-58
2022/03/31 03:08:15;;;;;;;2.20;2.10;;;18.40;40.20;;;;;;5040496;28;20652;-58
2022/03/31 03:10:41;;;;;;;2.60;2.40;;;18.40;40.10;;;;;;5041406;28;20215;-58
2022/03/31 03:13:07;;;;;;;2.87;2.53;;;18.30;40.00;;;;;;5041245;28;20512;-58
2022/03/31 03:15:33;;;;;;;2.30;2.10;;;18.30;40.10;;;;;;5043225;28;20525;-57
2022/03/31 03:17:59;;;;;;;2.73;2.53;;;18.30;40.10;;;;;;5048508;28;21118;-59
2022/03/31 03:20:25;;;;;;;2.33;2.23;;;18.30;40.00;;;;;;5042315;28;20233;-59
2022/03/31 03:22:52;;;;;;;2.27;2.17;;;18.30;40.00;;;;;;5042252;28;20250;-59
2022/03/31 03:25:19;;;;;;;2.60;2.37;;;18.30;40.10;;;;;;5041134;28;20475;-59
2022/03/31 03:27:47;;;;;;;2.50;2.40;;;18.40;40.20;;;;;;5041207;28;20968;-57
2022/03/31 03:30:14;;;;;;;2.77;2.67;;;18.30;40.00;;;;;;5038833;28;20590;-58
2022/03/31 03:32:40;;;;;;;2.53;2.33;;;18.30;40.00;;;;;;5041811;28;20474;-58
2022/03/31 03:35:09;;;;;;;2.67;2.47;;;18.40;40.10;;;;;;5040880;28;20476;-57
2022/03/31 03:37:36;;;;;;;2.40;2.30;;;18.40;40.10;;;;;;5038414;28;20411;-58
2022/03/31 03:40:03;;;;;;;2.60;2.43;;;18.40;40.20;;;;;;5040195;28;20419;-59
2022/03/31 03:42:29;;;;;;;2.33;2.23;;;18.30;40.00;;;;;;5039583;28;20503;-59
2022/03/31 03:44:55;;;;;;;2.90;2.60;;;18.30;40.10;;;;;;5042281;28;20440;-58
2022/03/31 03:47:21;;;;;;;2.40;2.30;;;18.40;40.20;;;;;;5039371;28;20846;-57
2022/03/31 03:49:47;;;;;;;2.43;2.33;;;18.30;40.10;;;;;;5038592;28;20521;-57
2022/03/31 03:52:13;;;;;;;2.83;2.63;;;18.40;40.20;;;;;;5043573;28;20272;-57
2022/03/31 03:54:38;;;;;;;2.47;2.37;;;18.40;40.20;;;;;;5041226;28;20234;-58
2022/03/31 03:57:04;;;;;;;2.43;2.33;;;18.30;40.10;;;;;;5040827;28;20478;-58
2022/03/31 03:59:30;;;;;;;2.40;2.30;;;18.30;40.20;;;;;;5035958;28;20635;-58
2022/03/31 04:01:56;;;;;;;2.63;2.43;;;18.30;40.20;;;;;;5039975;28;20314;-58
2022/03/31 04:04:21;;;;;;;2.60;2.50;;;18.30;40.10;;;;;;5035623;28;20226;-57
2022/03/31 04:06:47;;;;;;;2.60;2.40;;;18.30;40.10;;;;;;5033388;28;20713;-58
2022/03/31 04:09:12;;;;;;;2.20;2.10;;;18.30;40.20;;;;;;5037825;28;20586;-57
2022/03/31 04:11:38;;;;;;;2.50;2.30;;;18.30;40.20;;;;;;5040344;28;20265;-57
2022/03/31 04:14:03;;;;;;;2.30;2.20;;;18.30;40.20;;;;;;5036030;28;20219;-57
2022/03/31 04:16:29;;;;;;;2.70;2.50;;;18.30;40.20;;;;;;5040841;28;20281;-58
2022/03/31 04:18:55;;;;;;;2.53;2.43;;;18.30;40.10;;;;;;5039472;28;20241;-58
2022/03/31 04:21:20;;;;;;;2.47;2.37;;;18.30;40.20;;;;;;5041499;28;20307;-57
2022/03/31 04:23:46;;;;;;;2.20;2.10;;;18.40;40.20;;;;;;5038320;28;20623;-58
2022/03/31 04:26:12;;;;;;;2.50;2.40;;;18.30;40.20;;;;;;5040201;28;20297;-58
2022/03/31 04:28:37;;;;;;;2.40;2.20;;;18.30;40.20;;;;;;5037331;28;20306;-57
2022/03/31 04:31:03;;;;;;;2.50;2.40;;;18.30;40.20;;;;;;5040593;28;20637;-57
2022/03/31 04:33:29;;;;;;;2.50;2.30;;;18.30;40.20;;;;;;5041848;28;20224;-59
2022/03/31 04:35:55;;;;;;;2.13;2.03;;;18.30;40.20;;;;;;5042151;28;20276;-59
2022/03/31 04:38:21;;;;;;;2.50;2.40;;;18.30;40.20;;;;;;5041886;28;20428;-58
2022/03/31 04:40:47;;;;;;;2.30;2.20;;;18.30;40.20;;;;;;5039029;28;21106;-59
2022/03/31 04:43:13;;;;;;;2.33;2.23;;;18.30;40.20;;;;;;5036366;28;20215;-56
2022/03/31 04:45:39;;;;;;;2.40;2.20;;;18.30;40.20;;;;;;5040682;28;20289;-60
2022/03/31 04:48:05;;;;;;;2.67;2.47;;;18.30;40.20;;;;;;5039716;28;20438;-61
2022/03/31 04:50:31;;;;;;;2.50;2.40;;;18.30;40.20;;;;;;5042652;28;20480;-58
2022/03/31 04:52:56;;;;;;;2.70;2.60;;;18.40;40.30;;;;;;5041813;28;20926;-58
2022/03/31 04:55:22;;;;;;;2.43;2.33;;;18.30;40.20;;;;;;5038418;28;20234;-59
2022/03/31 04:57:47;;;;;;;2.73;2.53;;;18.40;40.30;;;;;;5040818;28;20222;-58
2022/03/31 05:00:13;;;;;;;2.70;2.50;;;18.30;40.20;;;;;;5038359;28;20276;-59
2022/03/31 05:02:39;;;;;;;2.70;2.50;;;18.30;40.20;;;;;;5038353;28;20230;-57
2022/03/31 05:05:05;;;;;;;2.50;2.30;;;18.30;40.20;;;;;;5038810;28;20222;-57
2022/03/31 05:07:30;;;;;;;2.60;2.50;;;18.30;40.20;;;;;;5042487;28;20246;-58
2022/03/31 05:09:56;;;;;;;2.57;2.47;;;18.30;40.20;;;;;;5036739;28;20226;-58
2022/03/31 05:12:22;;;;;;;2.90;2.70;;;18.40;40.30;;;;;;5035381;28;20326;-58
2022/03/31 05:14:47;;;;;;;2.80;2.60;;;18.30;40.30;;;;;;5039559;28;20215;-59
2022/03/31 05:17:13;;;;;;;2.47;2.30;;;18.40;40.30;;;;;;5042808;28;20233;-59
2022/03/31 05:19:38;;;;;;;2.50;2.40;;;18.40;40.30;;;;;;5040862;28;20306;-58
2022/03/31 05:22:04;;;;;;;2.37;2.27;;;18.40;40.30;;;;;;5036913;28;20591;-58
2022/03/31 05:24:30;;;;;;;2.83;2.63;;;18.40;40.30;;;;;;5041025;28;20246;-58
2022/03/31 05:26:56;;;;;;;2.50;2.40;;;18.40;40.30;;;;;;5039349;28;20911;-59
2022/03/31 05:29:22;;;;;;;2.53;2.10;;;18.40;40.20;;;;;;5036497;28;20223;-58
2022/03/31 05:31:48;;;;;;;2.50;2.30;;;18.40;40.30;;;;;;5037836;28;20219;-60
2022/03/31 05:34:14;;;;;;;2.20;2.10;;;18.40;40.30;;;;;;5038696;28;20522;-59
2022/03/31 05:36:39;;;;;;;2.83;2.63;;;18.40;41.10;;;;;;5040972;28;20459;-59
2022/03/31 05:39:06;;;;;;;2.50;2.30;;;18.40;40.20;;;;;;5036510;28;20305;-59
2022/03/31 05:41:32;;;;;;;3.73;2.63;;;18.40;40.20;;;;;;5036021;28;20226;-59
2022/03/31 05:43:58;;;;;;;3.20;3.00;;;18.40;40.30;;;;;;5037932;28;20439;-58
2022/03/31 05:46:25;;;;;;;4.10;3.37;;;18.40;40.30;;;;;;5042221;28;20918;-59
2022/03/31 05:48:51;;;;;;;2.73;2.60;;;18.40;40.20;;;;;;5039835;28;20414;-59
2022/03/31 05:51:17;;;;;;;3.27;2.83;;;18.40;40.20;;;;;;5042014;28;20443;-60
2022/03/31 05:53:43;;;;;;;2.30;2.20;;;18.40;40.10;;;;;;5038180;28;20460;-59
2022/03/31 05:56:08;;;;;;;2.93;2.73;;;18.40;40.10;;;;;;5039351;28;20263;-59
2022/03/31 05:58:35;;;;;;;2.63;2.53;;;18.40;40.10;;;;;;5040448;28;20214;-59
2022/03/31 06:01:01;;;;;;;2.50;2.30;;;18.40;40.10;;;;;;5033483;28;20563;-59
2022/03/31 06:03:26;;;;;;;2.60;2.50;;;18.40;40.10;;;;;;5038743;28;20430;-59
2022/03/31 06:05:52;;;;;;;4.60;2.93;;;18.40;40.10;;;;;;5039381;28;20227;-59
2022/03/31 06:08:18;;;;;;;3.10;2.80;;;18.40;40.10;;;;;;5042353;28;20244;-64
2022/03/31 06:10:45;;;;;;;2.90;2.70;;;18.40;40.10;;;;;;4995878;28;20223;-59
2022/03/31 06:13:11;;;;;;;2.77;2.57;;;18.40;40.10;;;;;;5042945;28;20427;-60
2022/03/31 06:15:37;;;;;;;2.73;2.53;;;18.40;40.00;;;;;;5037074;28;20480;-58
2022/03/31 06:18:04;;;;;;;2.63;2.43;;;18.40;40.00;;;;;;5036914;28;20433;-59
2022/03/31 06:20:31;;;;;;;2.70;2.50;;;18.50;40.10;;;;;;5037278;28;20422;-59
2022/03/31 06:22:57;;;;;;;2.83;2.63;;;18.40;40.00;;;;;;5038047;28;20422;-59
2022/03/31 06:25:23;;;;;;;2.73;2.60;;;18.40;40.00;;;;;;5036146;28;20425;-59
2022/03/31 06:27:49;;;;;;;2.73;2.53;;;18.50;40.10;;;;;;5040809;28;20770;-58
2022/03/31 06:30:15;;;;;;;4.33;2.27;;;18.50;40.80;;;;;;5040118;28;20426;-59
2022/03/31 06:32:41;;;;;;;6.03;2.90;;;18.50;40.10;;;;;;5039196;28;20226;-59
2022/03/31 06:35:11;;;;;;;2.90;2.63;;;18.50;40.10;;;;;;5037628;28;20419;-59
2022/03/31 06:37:38;;;;;;;2.80;2.60;;;18.50;40.10;;;;;;5035516;28;20250;-58
2022/03/31 06:40:05;;;;;;;2.93;2.40;;;18.50;40.10;;;;;;5035600;28;20472;-58
2022/03/31 06:42:30;;;;;;;2.77;2.47;;;18.50;40.10;;;;;;5034800;28;20430;-59
2022/03/31 06:44:56;;;;;;;2.67;2.47;;;18.50;40.10;;;;;;5042681;28;20410;-59
2022/03/31 06:47:22;;;;;;;3.33;2.70;;;18.50;40.10;;;;;;5040711;28;20253;-59
2022/03/31 06:49:48;;;;;;;3.00;2.80;;;18.50;40.10;;;;;;5038651;28;20222;-59
2022/03/31 06:52:14;;;;;;;3.00;2.80;;;18.50;40.10;;;;;;5036034;28;20226;-60
2022/03/31 06:54:39;;;;;;;2.93;2.73;;;18.50;40.10;;;;;;5037485;28;20456;-59
2022/03/31 06:57:05;;;;;;;3.20;2.90;;;18.50;40.10;;;;;;5037183;28;20247;-59
2022/03/31 06:59:31;;;;;;;2.30;2.20;;;18.50;40.10;;;;;;5036883;28;20231;-58
2022/03/31 07:01:58;;;;;;;2.73;2.53;;;18.50;40.10;;;;;;5036597;28;20419;-58
2022/03/31 07:04:23;;;;;;;3.30;3.00;;;18.50;40.00;;;;;;5039894;28;20505;-59
2022/03/31 07:06:49;;;;;;;2.40;2.30;;;18.50;40.00;;;;;;5042331;28;20450;-58
2022/03/31 07:09:15;;;;;;;2.80;2.70;;;18.50;40.00;;;;;;5039647;28;20634;-61
2022/03/31 07:11:41;;;;;;;2.80;2.60;;;18.50;40.10;;;;;;5041642;28;20476;-59
2022/03/31 07:14:07;;;;;;;2.70;2.50;;;18.50;40.10;;;;;;5043668;28;20235;-58
2022/03/31 07:16:33;;;;;;;3.87;3.43;;;18.50;40.10;;;;;;5040734;28;20316;-59
2022/03/31 07:19:01;;;;;;;2.77;2.40;;;18.50;40.10;;;;;;5043364;28;20234;-60
2022/03/31 07:21:27;;;;;;;2.70;2.50;;;18.50;40.10;;;;;;5042503;28;20417;-58
2022/03/31 07:23:52;;;;;;;2.90;2.70;;;18.50;40.10;;;;;;5042766;28;20502;-59
2022/03/31 07:26:18;;;;;;;2.70;2.50;;;18.50;40.10;;;;;;5041818;28;20678;-60
2022/03/31 07:28:44;;;;;;;3.03;2.83;;;18.50;40.10;;;;;;5041634;28;20215;-58
2022/03/31 07:31:10;;;;;;;2.63;2.53;;;18.50;40.10;;;;;;5038860;28;20455;-57
2022/03/31 07:33:35;;;;;;;2.70;2.60;;;18.50;40.10;;;;;;5041684;28;20211;-60
2022/03/31 07:36:01;;;;;;;3.27;3.07;;;18.50;40.00;;;;;;5044165;28;20777;-58
2022/03/31 07:38:27;;;;;;;2.63;2.50;;;18.50;40.10;;;;;;5039190;28;20222;-58
2022/03/31 07:40:52;;;;;;;2.70;2.60;;;18.50;40.10;;;;;;5037805;28;20246;-60
2022/03/31 07:43:18;;;;;;;2.60;2.50;;;18.50;40.10;;;;;;5043947;28;20227;-58
2022/03/31 07:45:45;;;;;;;3.80;3.10;;;18.50;40.10;;;;;;5038501;28;20219;-60
2022/03/31 07:48:15;;;;;;;2.83;2.63;;;18.50;40.10;;;;;;5035944;28;20223;-62
2022/03/31 07:50:41;;;;;;;3.17;2.97;;;18.50;40.00;;;;;;5039651;28;20492;-59
2022/03/31 07:53:08;;;;;;;3.00;2.80;;;18.50;40.10;;;;;;5042430;28;20445;-59
2022/03/31 07:55:34;;;;;;;2.63;2.43;;;18.50;40.00;;;;;;5037180;28;20546;-59
2022/03/31 07:57:59;;;;;;;3.23;2.57;;;18.50;40.00;;;;;;5038721;28;20484;-59
2022/03/31 08:00:25;;;;;;;2.90;2.70;;;18.50;40.00;;;;;;5038174;28;20223;-58
2022/03/31 08:02:51;;;;;;;2.80;2.60;;;18.50;40.00;;;;;;5043144;28;20231;-58
2022/03/31 08:05:22;;;;;;;3.07;2.87;;;18.50;40.10;;;;;;5014013;28;20247;-58
2022/03/31 08:07:48;;;;;;;3.10;2.90;;;18.50;40.00;;;;;;5030199;28;20848;-58
2022/03/31 08:10:15;;;;;;;3.00;2.70;;;18.50;40.10;;;;;;5040751;28;20426;-58
2022/03/31 08:12:41;;;;;;;2.77;2.57;;;18.50;40.10;;;;;;5038200;28;20833;-58
2022/03/31 08:15:08;;;;;;;3.30;3.10;;;18.50;40.10;;;;;;5036760;28;20556;-57
2022/03/31 08:17:34;;;;;;;3.67;3.37;;;18.50;40.10;;;;;;5038882;28;20443;-59
2022/03/31 08:20:00;;;;;;;2.57;2.37;;;18.50;40.10;;;;;;5036181;28;20451;-57
2022/03/31 08:22:26;;;;;;;3.23;3.03;;;18.50;40.10;;;;;;5042012;28;20676;-58
2022/03/31 08:24:52;;;;;;;2.83;2.63;;;18.50;40.10;;;;;;5041436;28;20510;-57
2022/03/31 08:27:18;;;;;;;3.30;3.10;;;18.50;40.10;;;;;;5036741;28;20455;-56
2022/03/31 08:29:43;;;;;;;2.57;2.47;;;18.50;40.10;;;;;;5042881;28;20430;-57
2022/03/31 08:32:09;;;;;;;2.47;2.37;;;18.50;40.00;;;;;;5040456;28;20715;-57
2022/03/31 08:34:35;;;;;;;3.00;2.80;;;18.50;40.10;;;;;;5037455;28;20281;-57
2022/03/31 08:37:01;;;;;;;3.10;2.90;;;18.50;40.10;;;;;;5039798;28;20263;-58
2022/03/31 08:39:27;;;;;;;2.47;2.30;;;18.50;40.00;;;;;;5039541;28;20462;-59
2022/03/31 08:41:53;;;;;;;2.73;2.53;;;18.50;40.80;;;;;;5039951;28;20910;-57
2022/03/31 08:44:22;;;;;;;2.77;2.57;;;18.50;40.10;;;;;;5040110;28;20215;-57
2022/03/31 08:46:50;;;;;;;2.77;2.57;;;18.50;40.10;;;;;;5037636;28;20557;-60
2022/03/31 08:49:16;;;;;;;2.60;2.40;;;18.50;40.00;;;;;;5037534;28;21029;-57
2022/03/31 08:51:45;;;;;;;2.70;2.60;;;18.50;40.00;;;;;;5019613;28;20437;-59
2022/03/31 08:54:11;;;;;;;2.43;2.23;;;18.50;40.10;;;;;;5043870;28;20219;-60
2022/03/31 08:56:38;;;;;;;2.40;2.30;;;18.50;40.10;;;;;;5035458;28;20471;-60
2022/03/31 08:59:04;;;;;;;2.90;2.50;;;18.50;40.00;;;;;;5040568;28;20475;-58
2022/03/31 09:01:32;;;;;;;2.60;2.40;;;18.50;40.00;;;;;;5042161;28;20452;-57
2022/03/31 09:03:58;;;;;;;3.00;2.80;;;18.50;40.80;;;;;;5040648;28;20461;-57
2022/03/31 09:06:28;;;;;;;2.80;2.60;;;18.50;40.00;;;;;;5039932;28;20944;-57
2022/03/31 09:08:59;;;;;;;2.53;2.43;;;18.50;40.10;;;;;;5036682;28;20451;-57
2022/03/31 09:11:29;;;;;;;2.40;2.30;;;18.50;40.00;;;;;;5036566;28;20426;-57
2022/03/31 09:13:59;;;;;;;2.50;2.30;;;18.50;40.00;;;;;;5038629;28;20448;-59
2022/03/31 09:16:36;;;;;;;2.77;2.57;;;18.50;40.00;;;;;;5042269;28;20464;-59
2022/03/31 09:19:09;;;;;;;1.97;1.87;;;18.50;40.00;;;;;;5037300;28;20441;-58
2022/03/31 09:21:57;;;;;;;2.70;2.60;;;18.50;40.80;;;;;;5038667;28;21145;-58
2022/03/31 09:24:26;;;;;;;3.23;2.70;;;18.50;40.00;;;;;;5038898;28;20418;-57
2022/03/31 09:26:53;;;;;;;2.40;2.30;;;18.50;40.00;;;;;;5037021;28;20901;-57
2022/03/31 09:29:23;;;;;;;2.53;2.43;;;18.50;40.10;;;;;;5023698;28;20459;-57
2022/03/31 09:31:51;;;;;;;2.60;2.40;;;18.50;40.00;;;;;;5036510;28;20435;-58
2022/03/31 09:34:17;;;;;;;3.13;2.93;;;18.50;40.00;;;;;;5039004;28;20422;-57
2022/03/31 09:36:51;;;;;;;3.10;2.80;;;18.50;40.00;;;;;;5041528;28;20816;-58
2022/03/31 09:39:18;;;;;;;2.70;2.50;;;18.50;40.10;;;;;;5039352;28;20904;-58
2022/03/31 09:41:50;;;;;;;2.67;2.47;;;18.50;40.00;;;;;;5040421;28;20450;-58
2022/03/31 09:44:23;;;;;;;3.00;2.70;;;18.50;40.10;;;;;;5036379;28;20431;-57
2022/03/31 09:46:49;;;;;;;3.30;2.60;;;18.50;40.00;;;;;;5038975;28;20915;-60
2022/03/31 09:49:24;;;;;;;2.50;2.40;;;18.50;40.10;;;;;;5038443;28;20457;-58
2022/03/31 09:51:52;;;;;;;2.33;2.23;;;18.50;40.00;;;;;;5039925;28;20438;-60
2022/03/31 09:54:19;;;;;;;2.33;2.23;;;18.50;40.10;;;;;;5039490;28;20511;-60
2022/03/31 09:56:46;;;;;;;2.37;2.27;;;18.50;40.00;;;;;;5037824;28;20464;-58
2022/03/31 09:59:14;;;;;;;2.80;2.60;;;18.50;40.10;;;;;;5039797;28;20525;-59
2022/03/31 10:01:40;;;;;;;2.30;2.10;;;18.50;40.00;;;;;;5038834;28;20428;-58
2022/03/31 10:04:07;;;;;;;2.43;2.23;;;18.50;40.10;;;;;;5038968;28;20469;-59
2022/03/31 10:06:38;;;;;;;2.33;2.20;;;18.50;40.10;;;;;;5039826;28;20440;-58
2022/03/31 10:09:06;;;;;;;2.47;2.37;;;18.40;40.00;;;;;;5041329;28;20467;-60
2022/03/31 10:11:34;;;;;;;2.93;2.73;;;18.50;40.10;;;;;;5035832;28;20426;-58
2022/03/31 10:14:25;;;;;;;2.90;2.70;;;18.40;40.00;;;;;;5043140;28;20431;-58
2022/03/31 10:16:57;;;;;;;3.47;2.70;;;18.50;40.10;;;;;;5039369;28;20468;-58
2022/03/31 10:19:35;;;;;;;2.50;2.30;;;18.50;40.10;;;;;;5040162;28;20441;-59
2022/03/31 10:25:09;;;;;;;2.57;2.47;;;18.40;40.00;;;;;;5036565;28;20984;-58
2022/03/31 10:27:40;;;;;;;3.13;2.93;;;18.40;40.00;;;;;;5034209;28;20931;-60
2022/03/31 10:30:26;;;;;;;2.60;2.40;;;18.40;40.10;;;;;;5039050;28;20446;-57
2022/03/31 10:32:56;;;;;;;2.20;2.10;;;18.40;40.10;;;;;;5037204;28;20471;-58
2022/03/31 10:35:27;;;;;;;2.97;2.77;;;18.40;40.10;;;;;;5037956;28;20444;-59
2022/03/31 10:37:54;;;;;;;2.83;2.63;;;18.40;40.10;;;;;;5037234;28;20427;-58
2022/03/31 10:40:35;;;;;;;3.13;2.93;;;18.40;40.10;;;;;;5039272;28;20414;-57
2022/03/31 10:43:02;;;;;;;3.13;2.60;;;18.40;40.10;;;;;;5041841;28;20456;-57
2022/03/31 10:45:43;;;;;;;2.53;2.43;;;18.40;40.10;;;;;;5041678;28;20918;-58
2022/03/31 10:48:17;;;;;;;3.93;2.80;;;18.40;40.10;;;;;;5039903;28;20447;-58
2022/03/31 10:50:43;;;;;;;2.40;2.30;;;18.40;40.10;;;;;;5043320;28;20448;-58
2022/03/31 10:53:08;;;;;;;2.77;2.57;;;18.40;40.10;;;;;;5041537;28;21389;-58
2022/03/31 10:55:37;;;;;;;2.77;2.57;;;18.40;40.20;;;;;;5044030;28;20581;-58
2022/03/31 10:58:04;;;;;;;3.50;2.63;;;18.40;40.10;;;;;;5040370;28;20226;-58
2022/03/31 11:00:30;;;;;;;2.43;2.33;;;18.40;40.20;;;;;;5043246;28;20473;-57
2022/03/31 11:02:56;;;;;;;2.93;2.73;;;18.40;40.10;;;;;;5041565;28;20906;-59
2022/03/31 11:05:22;;;;;;;2.67;2.47;;;18.40;40.90;;;;;;5043803;28;20218;-59
2022/03/31 11:07:48;;;;;;;3.07;2.77;;;18.40;40.10;;;;;;5042019;28;20219;-58
2022/03/31 11:10:17;;;;;;;2.73;2.53;;;18.40;40.10;;;;;;5039010;28;20423;-57
2022/03/31 11:12:43;;;;;;;3.63;2.70;;;18.40;40.10;;;;;;5041167;28;20219;-59
2022/03/31 11:15:15;;;;;;;2.90;2.70;;;18.40;40.20;;;;;;5041952;28;20503;-58
2022/03/31 11:17:42;;;;;;;2.77;2.57;;;18.40;40.20;;;;;;5041177;28;20464;-58
2022/03/31 11:20:24;;;;;;;2.70;2.60;;;18.40;40.10;;;;;;5041845;28;20454;-59
2022/03/31 11:22:59;;;;;;;3.20;3.00;;;18.40;40.20;;;;;;5039006;28;20417;-59
2022/03/31 11:25:26;;;;;;;3.00;2.80;;;18.40;40.20;;;;;;5042353;28;20491;-58
2022/03/31 11:27:52;;;;;;;3.37;3.07;;;18.40;40.10;;;;;;5040638;28;25224;-58
2022/03/31 11:30:24;;;;;;;2.93;2.83;;;18.40;40.10;;;;;;5041669;28;20501;-58
2022/03/31 11:32:57;;;;;;;2.80;2.60;;;18.40;40.20;;;;;;5037935;28;20459;-59
2022/03/31 11:35:27;;;;;;;3.13;2.43;;;18.40;40.10;;;;;;5042728;28;20431;-59
2022/03/31 11:37:54;;;;;;;3.50;3.20;;;18.40;40.10;;;;;;5044593;28;20422;-58
2022/03/31 11:40:22;;;;;;;4.83;2.63;;;18.40;40.10;;;;;;5041816;28;20497;-57
2022/03/31 11:42:50;;;;;;;3.40;3.20;;;18.40;40.10;;;;;;5041529;28;20466;-60
2022/03/31 11:45:34;;;;;;;3.20;2.90;;;18.40;40.20;;;;;;5040170;28;20414;-59
2022/03/31 11:48:09;;;;;;;3.07;2.87;;;18.40;40.10;;;;;;5044046;28;20422;-58
2022/03/31 11:50:38;;;;;;;2.70;2.60;;;18.40;40.20;;;;;;5040536;28;20444;-60
2022/03/31 11:53:15;;;;;;;2.77;2.57;;;18.40;40.10;;;;;;5042830;28;20944;-58
2022/03/31 11:55:41;;;;;;;2.80;2.63;;;18.40;40.10;;;;;;5042391;28;20862;-60
2022/03/31 11:58:12;;;;;;;3.13;2.93;;;18.40;40.20;;;;;;5042375;28;21077;-58
2022/03/31 12:00:49;;;;;;;3.37;3.07;;;18.40;40.20;;;;;;5041569;28;20297;-61
2022/03/31 12:03:16;;;;;;;3.30;2.40;;;18.40;40.10;;;;;;5039701;28;20443;-59
2022/03/31 12:05:42;;;;;;;3.67;3.00;;;18.40;40.10;;;;;;5042716;28;20426;-58
2022/03/31 12:08:08;;;;;;;9.13;3.40;;;18.40;40.10;;;;;;5043105;28;20696;-59
2022/03/31 12:10:33;;;;;;;2.77;2.67;;;18.40;40.10;;;;;;5044396;28;20422;-59
2022/03/31 12:13:01;;;;;;;2.73;2.63;;;18.40;40.10;;;;;;5041029;28;20453;-58
2022/03/31 12:15:29;;;;;;;3.27;2.97;;;18.40;40.10;;;;;;5040809;28;20226;-59
2022/03/31 12:18:07;;;;;;;2.70;2.60;;;18.40;40.20;;;;;;5038399;28;20434;-59
2022/03/31 12:20:35;;;;;;;3.30;3.00;;;18.40;40.10;;;;;;5042530;28;20422;-58
2022/03/31 12:23:01;;;;;;;3.00;2.80;;;18.40;40.10;;;;;;5042635;28;20946;-58
2022/03/31 12:25:32;;;;;;;3.00;2.80;;;18.40;40.20;;;;;;5038803;28;20506;-58
2022/03/31 12:28:09;;;;;;;9.50;2.70;;;18.40;40.10;;;;;;5043616;28;20447;-58
2022/03/31 12:30:47;;;;;;;2.73;2.53;;;18.40;40.10;;;;;;5042510;28;20555;-59
2022/03/31 12:33:34;;;;;;;2.63;2.47;;;18.40;40.10;;;;;;5036747;28;20457;-58
2022/03/31 12:36:05;;;;;;;2.60;2.50;;;18.40;40.10;;;;;;5039490;28;20871;-58
2022/03/31 12:38:42;;;;;;;2.80;2.60;;;18.40;40.10;;;;;;5037341;28;20526;-58
2022/03/31 12:41:33;;;;;;;2.50;2.30;;;18.40;40.10;;;;;;5037047;28;20434;-58
2022/03/31 12:44:16;;;;;;;2.70;2.50;;;18.40;40.10;;;;;;5039027;28;20465;-59
2022/03/31 12:46:52;;;;;;;2.73;2.53;;;18.40;40.10;;;;;;5039853;28;20419;-60
2022/03/31 12:49:19;;;;;;;2.70;2.50;;;18.40;40.20;;;;;;5040311;28;20509;-58
2022/03/31 12:52:01;;;;;;;3.53;2.63;;;18.40;40.10;;;;;;5040761;28;20426;-58
2022/03/31 12:54:34;;;;;;;2.60;2.40;;;18.40;40.10;;;;;;5039529;28;20848;-58
2022/03/31 12:57:19;;;;;;;2.53;2.43;;;18.40;40.20;;;;;;5043081;28;20502;-59
2022/03/31 13:00:07;;;;;;;3.20;2.83;;;18.40;40.20;;;;;;5037285;28;20423;-58
2022/03/31 13:02:34;;;;;;;2.27;2.17;;;18.40;40.20;;;;;;5039982;28;20824;-58
2022/03/31 13:05:00;;;;;;;2.30;2.20;;;18.40;40.10;;;;;;5042219;28;20415;-59
2022/03/31 13:07:29;;;;;;;2.33;2.10;;;18.40;40.10;;;;;;5041895;28;20517;-59
2022/03/31 13:10:05;;;;;;;2.90;2.70;;;18.40;40.90;;;;;;5040146;28;20891;-57
2022/03/31 13:12:31;;;;;;;3.00;2.80;;;18.40;40.10;;;;;;5039863;28;20422;-59